»·PEaware :: N13W KMHV-KTOA

N13W :: KMHV-KTOA

FLIGHT INFORMATION

Flight Status: Arrived
Operator: Privately registered:
United States
More flights under this callsign
Pilot: Will N. (25416)
Aircraft: SOCATA TBM-900
(TBM9)
More flights by this aircraft type
Origin: KMHV Mojave
United States
Destination: KTOA Zamperini
United States
More flights between these airports :: More routes between these airports
Route: +PMD V201 BERRI V459 SLI
File this flight plan on PilotEdge
Remarks:
Altitude:
(Current/Filed)
9,000ft
Speed:
(Current/Filed)
260kts
Departed: 01-Jan-20 08:25 PM
Arrived: 01-Jan-20 08:58 PM
Distance/Time
Traveled:
76nm/0:33
Distance/Time
To Go:
Arrived

Flight Plot

Page will automatically refresh every two minutes.


Map Options




Map Legend


Flown Route
Filed Route
Departure Airport
Arrival Airport
Navaid (VOR, NDB)
Fix

Horizontal Profiles

Position Reports

Time Latitude Longitude Heading Altitude Ground
Speed
01-Jan-20 20:07 35.056866 -118.148773 270 2744ft 0kts
01-Jan-20 20:08 35.056866 -118.148773 270 2744ft 0kts
01-Jan-20 20:09 35.056866 -118.148773 270 2744ft 0kts
01-Jan-20 20:10 35.056866 -118.148773 270 2744ft 0kts
01-Jan-20 20:11 35.056866 -118.148773 270 2744ft 0kts
01-Jan-20 20:12 35.056866 -118.148773 270 2744ft 0kts
01-Jan-20 20:13 35.056866 -118.148773 270 2744ft 0kts
01-Jan-20 20:14 35.056866 -118.148773 270 2744ft 0kts
01-Jan-20 20:15 35.056866 -118.148773 270 2744ft 0kts
01-Jan-20 20:16 35.056866 -118.148773 270 2744ft 0kts
01-Jan-20 20:17 35.056866 -118.148773 270 2744ft 0kts
01-Jan-20 20:18 35.056866 -118.148773 270 2744ft 0kts
01-Jan-20 20:19 35.057107 -118.148943 41 2745ft 0kts
01-Jan-20 20:20 35.057628 -118.145924 89 2739ft 21kts
01-Jan-20 20:21 35.058291 -118.142625 359 2734ft 0kts
01-Jan-20 20:22 35.058291 -118.142625 359 2734ft 0kts
01-Jan-20 20:23 35.058541 -118.142629 0 2734ft 7kts
01-Jan-20 20:24 35.058756 -118.165579 269 3076ft 146kts
01-Jan-20 20:25 35.032320 -118.215759 220 4810ft 188kts
01-Jan-20 20:26 34.993652 -118.254723 226 7230ft 176kts
01-Jan-20 20:27 34.954736 -118.294636 229 9604ft 185kts
01-Jan-20 20:28 34.907318 -118.343255 229 10018ft 249kts
01-Jan-20 20:29 34.841258 -118.344863 120 9972ft 300kts
01-Jan-20 20:30 34.787654 -118.267161 132 9966ft 301kts
01-Jan-20 20:31 34.730396 -118.192515 132 9967ft 302kts
01-Jan-20 20:32 34.672791 -118.117580 132 9970ft 303kts
01-Jan-20 20:34 34.603095 -118.078128 212 9959ft 279kts
01-Jan-20 20:35 34.531664 -118.116824 212 9971ft 280kts
01-Jan-20 20:36 34.459986 -118.154832 212 9971ft 279kts
01-Jan-20 20:37 34.388887 -118.192458 212 10037ft 276kts
01-Jan-20 20:38 34.318115 -118.229801 212 9721ft 275kts
01-Jan-20 20:39 34.248224 -118.266977 204 9300ft 282kts
01-Jan-20 20:40 34.172995 -118.279814 147 9024ft 279kts
01-Jan-20 20:41 34.103426 -118.239113 159 9014ft 274kts
01-Jan-20 20:42 34.030808 -118.215535 182 8711ft 288kts
01-Jan-20 20:43 33.951426 -118.220046 182 7755ft 285kts
01-Jan-20 20:44 33.874020 -118.220152 181 7014ft 262kts
01-Jan-20 20:45 33.804233 -118.217811 181 7017ft 243kts
01-Jan-20 20:46 33.737129 -118.215696 181 7020ft 225kts
01-Jan-20 20:47 33.676024 -118.218056 181 6225ft 209kts
01-Jan-20 20:48 33.647374 -118.174176 91 5006ft 185kts
01-Jan-20 20:49 33.642424 -118.115175 92 3948ft 153kts
01-Jan-20 20:50 33.669333 -118.105448 302 2657ft 148kts
01-Jan-20 20:51 33.685257 -118.150554 291 2006ft 132kts
01-Jan-20 20:52 33.703985 -118.188471 307 2021ft 131kts
01-Jan-20 20:52 33.723180 -118.217561 308 2019ft 134kts
01-Jan-20 20:54 33.750442 -118.258716 308 1897ft 130kts
01-Jan-20 20:55 33.769809 -118.287935 308 1206ft 95kts
01-Jan-20 20:55 33.782524 -118.307449 307 778ft 84kts
01-Jan-20 20:57 33.799161 -118.332328 307 141ft 79kts
01-Jan-20 20:57 33.805928 -118.343991 287 92ft 12kts
01-Jan-20 20:58 33.805811 -118.345117 222 93ft 9kts
01-Jan-20 21:00 33.804159 -118.345415 102 101ft 2kts
01-Jan-20 21:00 33.804198 -118.345324 30 100ft 0kts
01-Jan-20 21:01 33.804198 -118.345324 30 100ft 0kts

Navigation Log

Ident Type
Flight plan parsing failed, navigation log unavailable